Time;durP1;ratioP1;P1;durP2;ratioP2;P2;SDS_P1;SDS_P2;PMS_P1;PMS_P2;Temp;Humidity;BMP_temperature;BMP_pressure;BME280_temperature;BME280_humidity;BME280_pressure;Samples;Min_cycle;Max_cycle;Signal;HPM_P1;HPM_P2
2022/02/10 00:17:03;;;;;;;121.07;54.25;;;;;;;0.18;100.00;98609.94;5016426;28;20099;-85
2022/02/10 00:19:44;;;;;;;175.75;76.15;;;;;;;0.11;100.00;98605.56;5002760;28;20499;-85
2022/02/10 00:22:44;;;;;;;128.38;54.42;;;;;;;0.10;100.00;98610.81;4984026;28;20034;-84
2022/02/10 00:36:08;;;;;;;116.18;52.25;;;;;;;0.16;100.00;98616.94;4998283;28;20088;-86
2022/02/10 00:38:38;;;;;;;119.77;53.10;;;;;;;0.15;100.00;98615.22;4980019;28;20084;-84
2022/02/10 00:41:03;;;;;;;116.68;52.53;;;;;;;0.13;100.00;98608.19;4988302;28;20285;-85
2022/02/10 00:43:30;;;;;;;121.10;55.15;;;;;;;0.19;100.00;98611.66;4995459;28;20140;-84
2022/02/10 00:45:55;;;;;;;122.68;54.63;;;;;;;0.17;100.00;98608.19;4995300;28;20091;-86
2022/02/10 00:48:21;;;;;;;104.65;48.42;;;;;;;0.14;100.00;98618.72;4979369;28;20136;-84
2022/02/10 00:50:49;;;;;;;102.47;47.83;;;;;;;0.11;100.00;98615.22;5015982;28;20121;-85
2022/02/10 00:55:43;;;;;;;108.40;47.83;;;;;;;0.05;100.00;98604.72;5035719;28;20407;-86
2022/02/10 00:58:12;;;;;;;105.45;47.00;;;;;;;0.12;100.00;98609.97;5035881;28;20025;-85
2022/02/10 01:30:26;;;;;;;93.97;42.08;;;;;;;-0.28;100.00;98600.44;5037660;28;20043;-85
2022/02/10 01:32:55;;;;;;;82.15;40.33;;;;;;;-0.34;100.00;98603.09;5017985;28;20111;-85
2022/02/10 01:35:23;;;;;;;81.93;40.35;;;;;;;-0.29;100.00;98604.81;5019208;28;20025;-86
2022/02/10 01:37:49;;;;;;;74.32;36.05;;;;;;;-0.28;100.00;98597.81;5018419;28;20039;-85
2022/02/10 01:40:25;;;;;;;70.63;34.05;;;;;;;-0.36;100.00;98596.94;5033228;28;20025;-85
2022/02/10 01:57:37;;;;;;;71.03;33.72;;;;;;;-0.31;100.00;98595.19;5020342;28;20029;-85
2022/02/10 02:04:48;;;;;;;52.05;25.42;;;;;;;-0.44;100.00;98575.94;5049198;28;20099;-85
2022/02/10 02:07:14;;;;;;;47.10;23.90;;;;;;;-0.50;100.00;98556.69;5002400;28;20474;-85
2022/02/10 02:09:39;;;;;;;49.63;21.98;;;;;;;-0.46;100.00;98576.84;5002999;28;20033;-85
2022/02/10 02:12:07;;;;;;;47.33;21.55;;;;;;;-0.63;100.00;98569.84;5021986;28;20500;-85
2022/02/10 02:14:33;;;;;;;42.20;19.92;;;;;;;-0.75;100.00;98577.75;5038579;28;20025;-84
2022/02/10 02:17:02;;;;;;;42.70;19.65;;;;;;;-0.76;100.00;98578.59;5054473;28;20090;-86
2022/02/10 02:19:29;;;;;;;42.63;19.50;;;;;;;-0.70;100.00;98578.59;5037590;28;20037;-85
2022/02/10 02:21:59;;;;;;;39.38;19.55;;;;;;;-0.81;100.00;98569.88;5021764;28;20048;-85
2022/02/10 02:24:25;;;;;;;50.95;22.63;;;;;;;-0.93;100.00;98572.50;5042673;28;20466;-85
2022/02/10 02:26:52;;;;;;;53.88;24.65;;;;;;;-0.99;100.00;98548.88;5001725;28;20033;-85
2022/02/10 02:29:27;;;;;;;46.15;22.80;;;;;;;-1.04;100.00;98554.97;5035111;28;20033;-85
2022/02/10 02:32:04;;;;;;;40.30;20.60;;;;;;;-0.99;100.00;98562.00;5036315;28;20035;-85
2022/02/10 03:06:36;;;;;;;53.17;25.90;;;;;;;-0.78;100.00;98592.63;5017913;28;20096;-85
2022/02/10 03:09:07;;;;;;;52.70;25.23;;;;;;;-0.88;100.00;98581.25;5010882;28;20116;-86
2022/02/10 03:11:35;;;;;;;39.17;18.35;;;;;;;-0.83;100.00;98586.50;5001782;28;20021;-84
2022/02/10 03:14:09;;;;;;;49.30;22.58;;;;;;;-0.84;100.00;98576.88;5036842;28;20033;-84
2022/02/10 03:22:02;;;;;;;45.15;22.27;;;;;;;-0.96;100.00;98577.75;5019591;28;20485;-85
2022/02/10 04:00:34;;;;;;;59.97;27.55;;;;;;;-1.27;100.00;98581.22;5030498;28;20068;-85
2022/02/10 04:03:42;;;;;;;54.42;26.83;;;;;;;-1.28;100.00;98589.97;5034205;28;20513;-85
2022/02/10 04:11:45;;;;;;;55.75;24.95;;;;;;;-1.35;100.00;98577.69;5016407;28;20033;-84
2022/02/10 04:14:06;;;;;;;87.88;34.53;;;;;;;-1.50;100.00;98568.06;5033976;28;20047;-85
2022/02/10 04:16:43;;;;;;;61.08;27.88;;;;;;;-1.43;100.00;98588.19;4996490;28;20553;-86
2022/02/10 04:26:53;;;;;;;44.70;22.58;;;;;;;-1.33;100.00;98591.72;5035457;28;20021;-85
2022/02/10 04:56:07;;;;;;;62.38;30.95;;;;;;;-1.50;100.00;98589.06;5018661;28;20033;-88
2022/02/10 05:07:07;;;;;;;90.75;34.05;;;;;;;-1.56;100.00;98569.78;5017233;28;20120;-87
2022/02/10 05:15:34;;;;;;;93.57;35.95;;;;;;;-1.56;100.00;98572.41;5030475;28;20032;-87
2022/02/10 05:17:58;;;;;;;137.75;52.17;;;;;;;-1.59;100.00;98573.28;5044205;28;20021;-86
2022/02/10 05:34:02;;;;;;;68.53;26.23;;;;;;;-1.72;100.00;98568.88;5027102;28;20033;-87
2022/02/10 05:36:33;;;;;;;68.85;29.20;;;;;;;-1.74;100.00;98574.13;5047755;28;20063;-86
2022/02/10 06:49:52;;;;;;;152.07;70.60;;;;;;;10.27;50.38;98558.00;5002628;28;20040;-87
2022/02/10 07:02:54;;;;;;;131.82;59.97;;;;;;;11.99;45.95;98547.06;5017842;28;20160;-89
2022/02/10 08:55:51;;;;;;;63.40;38.15;;;;;;;18.28;36.72;98495.19;5004500;28;20056;-77
2022/02/10 09:04:27;;;;;;;66.25;38.78;;;;;;;15.96;40.15;98497.03;4950280;28;20121;-75
2022/02/10 09:12:41;;;;;;;66.47;37.33;;;;;;;17.80;36.92;98494.41;4979228;28;20096;-75
2022/02/10 09:15:30;;;;;;;69.68;39.15;;;;;;;18.42;35.74;98481.44;4981720;28;20446;-76
2022/02/10 09:21:40;;;;;;;63.08;36.63;;;;;;;19.21;35.07;98488.59;4988256;28;20171;-76
2022/02/10 09:24:35;;;;;;;58.45;35.47;;;;;;;19.80;33.67;98472.81;4966807;28;20487;-75
2022/02/10 09:49:32;;;;;;;45.25;28.73;;;;;;;21.14;31.43;98428.41;5005861;28;20104;-75
2022/02/10 09:56:48;;;;;;;44.88;30.88;;;;;;;21.64;30.54;98405.56;4999011;28;20106;-76
2022/02/10 09:59:27;;;;;;;42.55;26.05;;;;;;;21.94;30.34;98397.28;4989543;28;20120;-77
2022/02/10 10:05:13;;;;;;;42.78;28.83;;;;;;;21.76;30.68;98388.06;4998906;28;20056;-75
2022/02/10 10:56:43;;;;;;;22.85;15.68;;;;;;;22.50;27.90;98277.31;4996899;28;20537;-77
2022/02/10 10:59:29;;;;;;;25.83;15.32;;;;;;;21.69;29.05;98282.59;5005979;28;20505;-77
2022/02/10 11:22:41;;;;;;;15.43;9.40;;;;;;;25.06;25.30;98255.00;4997604;28;20076;-77
2022/02/10 11:38:49;;;;;;;6.00;1.50;;;;;;;26.75;19.84;98177.94;5005179;28;20084;-75
2022/02/10 12:29:35;;;;;;;9.50;5.88;;;;;;;26.31;23.69;98152.09;5002474;28;20086;-73
2022/02/10 14:14:25;;;;;;;;;;;;;;;27.75;20.61;98080.53;5005792;28;20412;-72
2022/02/10 14:17:01;;;;;;;32.97;18.80;;;;;;;27.47;21.29;98084.16;5021289;28;20292;-72
2022/02/10 14:27:20;;;;;;;14.88;8.95;;;;;;;26.42;22.30;98078.44;5028803;28;20036;-73
2022/02/10 14:29:47;;;;;;;12.77;7.93;;;;;;;26.25;22.83;98074.09;4998799;28;20083;-73
2022/02/10 14:32:16;;;;;;;22.42;11.40;;;;;;;26.29;23.35;98072.72;5011597;28;20057;-74
2022/02/10 14:34:41;;;;;;;7.93;5.30;;;;;;;26.13;22.84;98067.28;5004908;28;20112;-74
2022/02/10 15:32:30;;;;;;;32.70;18.45;;;;;;;14.74;45.34;98120.88;5001186;28;20521;-73
2022/02/10 16:19:26;;;;;;;23.40;12.95;;;;;;;12.14;56.83;98171.66;5015209;28;20087;-82
2022/02/10 16:22:21;;;;;;;22.85;13.50;;;;;;;12.12;57.06;98173.53;4998298;28;20044;-82
2022/02/10 16:25:03;;;;;;;23.25;13.25;;;;;;;11.94;57.72;98161.19;5014255;28;20390;-82
2022/02/10 16:27:30;;;;;;;34.75;20.58;;;;;;;11.81;57.55;98141.44;4999525;28;20058;-82
2022/02/10 16:30:07;;;;;;;43.47;24.58;;;;;;;11.79;58.21;98162.06;5013970;28;20098;-80
2022/02/10 16:32:34;;;;;;;31.63;18.70;;;;;;;11.64;58.51;98160.22;5006765;28;20084;-82
2022/02/10 16:35:03;;;;;;;50.58;30.65;;;;;;;11.47;58.75;98141.56;4984989;28;20040;-84
2022/02/10 16:37:29;;;;;;;38.97;23.42;;;;;;;11.47;58.79;98161.19;4986348;28;20026;-85
2022/02/10 16:40:13;;;;;;;39.33;21.67;;;;;;;11.37;58.63;98151.94;4985091;28;20044;-85
2022/02/10 16:42:38;;;;;;;40.10;24.63;;;;;;;11.23;59.53;98150.00;5010969;28;20117;-83
2022/02/10 16:45:04;;;;;;;49.88;26.80;;;;;;;11.02;59.54;98113.69;5007900;28;20130;-84
2022/02/10 16:47:30;;;;;;;60.80;32.35;;;;;;;11.06;59.80;98128.66;5002918;28;20025;-84
2022/02/10 16:49:56;;;;;;;49.05;28.55;;;;;;;11.06;59.92;98142.03;4984796;28;20128;-84
2022/02/10 16:52:31;;;;;;;44.95;22.60;;;;;;;10.77;59.86;98121.31;4984043;28;20033;-85
2022/02/10 17:01:03;;;;;;;35.72;17.50;;;;;;;10.51;61.63;98162.84;5002905;28;20032;-85
2022/02/10 17:17:19;;;;;;;44.97;18.42;;;;;;;9.30;66.52;98138.59;5005914;28;20086;-84
2022/02/10 17:19:33;;;;;;;42.25;18.65;;;;;;;9.14;66.43;98144.66;5009959;28;20044;-84
2022/02/10 17:27:26;;;;;;;74.13;36.70;;;;;;;8.63;68.88;98163.06;5013070;28;20049;-82
2022/02/10 17:46:20;;;;;;;42.25;18.25;;;;;;;8.05;69.44;98168.22;4987033;28;20620;-84
2022/02/10 17:53:51;;;;;;;77.05;37.17;;;;;;;7.81;69.41;98145.25;5011949;28;20113;-83
2022/02/10 17:56:17;;;;;;;99.68;45.35;;;;;;;7.88;69.80;98152.03;4985543;28;20050;-84
2022/02/10 17:58:43;;;;;;;75.63;32.25;;;;;;;7.86;71.26;98161.91;4974930;28;20509;-84
2022/02/10 18:01:09;;;;;;;109.18;53.42;;;;;;;7.53;69.88;98113.56;4996620;28;20120;-82
2022/02/10 18:04:06;;;;;;;50.38;27.02;;;;;;;7.84;69.25;98160.25;4996772;28;20034;-83
2022/02/10 18:06:38;;;;;;;86.47;45.53;;;;;;;7.45;69.77;98115.66;4986342;28;20058;-84
2022/02/10 18:17:07;;;;;;;44.47;22.35;;;;;;;7.15;72.54;98140.81;5001520;28;20037;-84
2022/02/10 18:19:43;;;;;;;82.63;28.83;;;;;;;6.88;73.09;98116.16;4978508;28;20061;-83
2022/02/10 18:25:15;;;;;;;52.67;23.90;;;;;;;6.82;75.10;98150.97;4999300;28;20567;-82
2022/02/10 18:28:23;;;;;;;76.40;31.40;;;;;;;6.60;76.32;98150.03;4994867;28;20513;-83
2022/02/10 19:09:12;;;;;;;94.00;36.97;;;;;;;5.59;83.66;98138.47;4979942;28;20037;-83
2022/02/10 19:11:43;;;;;;;87.80;36.20;;;;;;;5.55;83.94;98139.50;4973443;28;20505;-83
2022/02/10 19:14:09;;;;;;;71.47;31.05;;;;;;;5.47;84.15;98136.22;4971926;28;20064;-84
2022/02/10 19:16:35;;;;;;;78.57;31.15;;;;;;;5.52;84.60;98147.53;4979732;28;20037;-82
2022/02/10 19:19:01;;;;;;;71.90;27.27;;;;;;;5.47;83.86;98146.84;4977282;28;20035;-83
2022/02/10 19:21:27;;;;;;;63.38;26.33;;;;;;;5.43;84.11;98148.72;4986685;28;20064;-84
2022/02/10 19:23:53;;;;;;;66.85;22.73;;;;;;;5.32;85.61;98142.03;4990220;28;20105;-84
2022/02/10 19:26:18;;;;;;;46.70;19.30;;;;;;;5.31;84.93;98165.03;4968933;28;20133;-82
2022/02/10 19:28:44;;;;;;;56.90;22.38;;;;;;;5.22;85.14;98144.09;4977147;28;20030;-84
2022/02/10 19:31:11;;;;;;;61.75;25.05;;;;;;;5.16;86.11;98151.38;4964211;28;20038;-84
2022/02/10 19:33:37;;;;;;;88.97;33.03;;;;;;;5.09;87.21;98141.84;4980356;28;20033;-85
2022/02/10 19:36:03;;;;;;;72.40;25.65;;;;;;;5.00;86.79;98137.69;4989343;28;20026;-85
2022/02/10 19:38:30;;;;;;;80.38;32.20;;;;;;;4.96;86.15;98135.19;4980330;28;20030;-84
2022/02/10 19:40:56;;;;;;;83.88;32.67;;;;;;;5.03;87.19;98144.69;4963424;28;20085;-84
2022/02/10 19:43:22;;;;;;;137.25;56.65;;;;;;;5.04;86.42;98146.44;4980930;28;20136;-84
2022/02/10 19:45:49;;;;;;;126.68;55.70;;;;;;;4.95;88.30;98154.66;4980776;28;20030;-84
2022/02/10 19:48:15;;;;;;;163.18;70.65;;;;;;;4.83;88.35;98138.19;4979848;28;20107;-84
2022/02/10 19:50:42;;;;;;;179.55;84.57;;;;;;;4.89;89.16;98153.91;4979589;28;20022;-85
2022/02/10 19:53:09;;;;;;;107.53;48.67;;;;;;;4.85;87.90;98140.81;4975389;28;20038;-85
2022/02/10 19:55:38;;;;;;;94.30;40.42;;;;;;;4.70;88.21;98136.84;4979306;28;20082;-85
2022/02/10 19:58:08;;;;;;;83.53;33.85;;;;;;;4.72;88.31;98150.03;4988326;28;20037;-85
2022/02/10 20:00:39;;;;;;;140.25;64.38;;;;;;;4.70;88.68;98136.84;5005535;28;20037;-84
2022/02/10 20:03:12;;;;;;;143.95;61.53;;;;;;;4.69;88.11;98156.28;4972025;28;20098;-85
2022/02/10 20:05:44;;;;;;;174.85;74.30;;;;;;;4.64;89.01;98152.91;4975774;28;20402;-84
2022/02/10 20:08:10;;;;;;;102.13;48.78;;;;;;;4.53;89.45;98144.41;4979430;28;20034;-84
2022/02/10 20:10:35;;;;;;;92.30;43.25;;;;;;;4.34;88.94;98111.38;4997005;28;20412;-85
2022/02/10 20:13:01;;;;;;;120.15;54.80;;;;;;;4.33;89.60;98117.63;4988715;28;20026;-85
2022/02/10 20:15:33;;;;;;;102.22;43.65;;;;;;;4.25;89.88;98122.25;4994612;28;20117;-83
2022/02/10 20:18:02;;;;;;;105.85;44.70;;;;;;;3.83;90.13;98051.06;4995933;28;20022;-85
2022/02/10 20:20:29;;;;;;;108.10;47.53;;;;;;;4.30;90.23;98136.25;4974372;28;20066;-85
2022/02/10 20:22:55;;;;;;;124.93;52.28;;;;;;;4.21;91.03;98136.50;4982043;28;20033;-83
2022/02/10 20:25:21;;;;;;;109.80;49.72;;;;;;;4.22;91.82;98135.56;4986759;28;20060;-84
2022/02/10 20:27:48;;;;;;;100.07;45.83;;;;;;;3.99;92.37;98114.16;4985173;28;20418;-84
2022/02/10 20:30:13;;;;;;;105.20;46.88;;;;;;;4.00;91.60;98115.91;4989212;28;20058;-84
2022/02/10 20:32:39;;;;;;;109.95;50.63;;;;;;;4.04;92.11;98128.13;4978060;28;20208;-85
2022/02/10 20:35:10;;;;;;;83.90;36.17;;;;;;;3.91;92.58;98109.06;4987058;28;20033;-86
2022/02/10 20:37:36;;;;;;;85.25;40.25;;;;;;;3.81;92.72;98089.91;4993223;28;20093;-84
2022/02/10 20:40:04;;;;;;;105.10;43.63;;;;;;;3.82;92.68;98094.28;4989721;28;20053;-85
2022/02/10 20:42:31;;;;;;;94.05;41.38;;;;;;;3.72;93.05;98084.00;4997756;28;20048;-84
2022/02/10 20:44:56;;;;;;;93.63;38.40;;;;;;;3.88;93.44;98110.94;4995682;28;20584;-84
2022/02/10 20:47:24;;;;;;;91.07;38.85;;;;;;;3.84;93.22;98100.41;4994342;28;20034;-84
2022/02/10 20:49:50;;;;;;;83.97;36.90;;;;;;;3.86;93.73;98100.38;4989552;28;20030;-83
2022/02/10 20:52:16;;;;;;;68.85;27.85;;;;;;;3.73;93.71;98091.91;4984025;28;20120;-85
2022/02/10 20:54:42;;;;;;;63.13;28.02;;;;;;;3.81;93.79;98100.47;4984237;28;20026;-85
2022/02/10 20:57:08;;;;;;;63.05;29.23;;;;;;;3.71;95.46;98077.84;4987917;28;20029;-84
2022/02/10 20:59:40;;;;;;;75.93;33.25;;;;;;;3.72;94.82;98068.97;4988642;28;20044;-84
2022/02/10 21:02:10;;;;;;;68.00;30.98;;;;;;;3.87;94.32;98093.31;5004475;28;20067;-84
2022/02/10 21:04:42;;;;;;;61.22;28.02;;;;;;;3.71;94.37;98082.25;4978918;28;20037;-85
2022/02/10 21:07:14;;;;;;;56.80;24.58;;;;;;;3.69;94.00;98078.81;4995550;28;20409;-83
2022/02/10 21:09:47;;;;;;;51.95;23.80;;;;;;;3.63;94.47;98071.88;4994042;28;20408;-84
2022/02/10 21:12:13;;;;;;;54.55;22.42;;;;;;;3.67;93.67;98070.91;4979541;28;20030;-85
2022/02/10 21:14:40;;;;;;;42.03;20.60;;;;;;;3.78;93.28;98075.91;4994688;28;20030;-83
2022/02/10 21:17:09;;;;;;;40.95;19.27;;;;;;;3.79;92.39;98070.56;5002680;28;20022;-85
2022/02/10 21:19:36;;;;;;;47.97;20.17;;;;;;;3.70;91.99;98057.59;4987484;28;20045;-85
2022/02/10 21:22:10;;;;;;;47.72;22.90;;;;;;;3.72;91.54;98057.56;4985269;28;20044;-84
2022/02/10 21:24:39;;;;;;;34.00;17.27;;;;;;;3.63;91.37;98037.50;4991676;28;20223;-85
2022/02/10 21:29:42;;;;;;;39.53;19.25;;;;;;;3.69;91.45;98050.53;5016486;28;20039;-84
2022/02/10 21:32:08;;;;;;;42.03;20.08;;;;;;;3.65;91.65;98045.41;4978331;28;20121;-85
2022/02/10 21:34:47;;;;;;;48.28;20.98;;;;;;;3.59;91.84;98030.56;4978187;28;20029;-84
2022/02/10 21:37:16;;;;;;;39.15;19.05;;;;;;;3.55;92.16;98035.97;4988063;28;20586;-85
2022/02/10 21:44:42;;;;;;;35.58;17.67;;;;;;;2.95;93.15;97944.16;4972555;28;20042;-86
2022/02/10 22:20:46;;;;;;;25.00;12.75;;;;;;;3.50;90.04;97999.09;5002064;28;20030;-83
2022/02/10 22:23:19;;;;;;;34.33;18.38;;;;;;;3.30;89.60;97988.16;4999281;28;20096;-84
2022/02/10 22:25:46;;;;;;;33.92;17.88;;;;;;;3.27;90.84;97985.59;4998596;28;20587;-85
2022/02/10 22:31:13;;;;;;;36.25;17.02;;;;;;;3.25;90.31;97982.13;4989996;28;20041;-83
2022/02/10 22:33:49;;;;;;;50.35;21.52;;;;;;;3.35;90.14;97990.69;5002585;28;20124;-84
2022/02/10 22:36:15;;;;;;;49.30;22.40;;;;;;;3.29;91.49;97978.50;4987912;28;20041;-85
2022/02/10 22:38:41;;;;;;;47.75;22.75;;;;;;;3.31;92.20;97992.53;5000258;28;20603;-84
2022/02/10 22:41:12;;;;;;;76.97;31.27;;;;;;;3.25;91.31;97982.13;5008754;28;20064;-85
2022/02/10 22:43:39;;;;;;;64.75;28.60;;;;;;;3.26;92.86;97989.16;4994279;28;20069;-85
2022/02/10 22:46:05;;;;;;;74.30;30.65;;;;;;;3.23;92.45;97995.38;4988796;28;20375;-85
2022/02/10 22:48:30;;;;;;;49.78;23.73;;;;;;;3.10;91.57;97987.81;4987531;28;20037;-85
2022/02/10 22:50:56;;;;;;;53.05;25.00;;;;;;;3.10;92.64;97995.72;5006414;28;20552;-85
2022/02/10 22:53:22;;;;;;;49.58;23.00;;;;;;;3.00;92.98;97973.09;4993874;28;20527;-85
2022/02/10 22:55:48;;;;;;;68.68;32.00;;;;;;;3.04;93.54;97994.13;4999497;28;20445;-84
2022/02/10 22:58:13;;;;;;;59.28;27.92;;;;;;;3.02;94.34;97995.91;5000344;28;20025;-85
2022/02/10 23:00:46;;;;;;;63.97;28.00;;;;;;;3.00;94.17;97989.81;4992054;28;20588;-85
2022/02/10 23:03:19;;;;;;;64.80;30.42;;;;;;;2.90;94.53;97990.94;4991239;28;20033;-85
2022/02/10 23:05:45;;;;;;;79.28;35.60;;;;;;;2.95;95.31;97998.75;5004484;28;20026;-85
2022/02/10 23:08:11;;;;;;;77.43;35.10;;;;;;;2.96;95.36;97992.53;5016019;28;20526;-85
2022/02/10 23:10:47;;;;;;;97.95;44.58;;;;;;;2.78;95.98;97963.94;5007914;28;20035;-85
2022/02/10 23:13:20;;;;;;;83.95;34.13;;;;;;;2.81;96.38;97974.44;4990444;28;20093;-84
2022/02/10 23:15:46;;;;;;;75.50;35.80;;;;;;;2.74;96.91;97964.03;4984637;28;20520;-84
2022/02/10 23:18:20;;;;;;;72.80;35.75;;;;;;;2.80;95.69;97949.78;5011142;28;20030;-84
2022/02/10 23:20:47;;;;;;;75.95;34.90;;;;;;;2.99;95.01;97981.91;4990881;28;20513;-85
2022/02/10 23:23:14;;;;;;;68.18;31.98;;;;;;;2.92;95.35;97956.56;5004282;28;20540;-85
2022/02/10 23:25:41;;;;;;;311.58;160.63;;;;;;;2.89;95.20;97975.13;4999366;28;20025;-85
2022/02/10 23:28:12;;;;;;;84.57;39.63;;;;;;;2.88;96.07;97957.53;4999611;28;20038;-85
2022/02/10 23:30:39;;;;;;;89.57;41.43;;;;;;;2.92;95.59;97973.28;5000839;28;20061;-85
2022/02/10 23:33:16;;;;;;;75.47;36.38;;;;;;;2.96;96.21;97972.28;4990309;28;20426;-84
2022/02/10 23:38:31;;;;;;;86.15;38.75;;;;;;;2.82;95.81;97955.06;5011817;28;20036;-85
2022/02/10 23:43:26;;;;;;;93.78;44.05;;;;;;;2.88;96.25;97968.09;5012523;28;20464;-84
2022/02/10 23:45:51;;;;;;;78.82;39.25;;;;;;;2.85;97.06;97970.81;5000222;28;20037;-84
2022/02/10 23:48:17;;;;;;;78.45;38.15;;;;;;;2.77;97.63;97960.44;4987213;28;20108;-83
2022/02/10 23:50:42;;;;;;;90.25;41.63;;;;;;;2.80;96.97;97967.44;5004151;28;20394;-85
2022/02/10 23:53:08;;;;;;;50.10;23.80;;;;;;;2.74;97.21;97960.50;4993869;28;20022;-84
2022/02/10 23:55:37;;;;;;;61.78;28.85;;;;;;;2.84;96.92;97969.06;4989026;28;20037;-84
2022/02/10 23:58:23;;;;;;;58.45;24.58;;;;;;;2.70;97.78;97970.31;5004084;28;20036;-84
